Time;durP1;ratioP1;P1;durP2;ratioP2;P2;SDS_P1;SDS_P2;PMS_P1;PMS_P2;Temp;Humidity;BMP_temperature;BMP_pressure;BME280_temperature;BME280_humidity;BME280_pressure;Samples;Min_cycle;Max_cycle;Signal;HPM_P1;HPM_P2
2022/12/18 00:01:37;;;;;;;;;;;;;;;-11.79;82.02;97479.75;5073921;28;19992;-74
2022/12/18 00:04:07;;;;;;;;;;;;;;;-11.83;82.12;97481.56;5073754;28;20355;-73
2022/12/18 00:06:36;;;;;;;;;;;;;;;-11.85;82.04;97481.59;5073716;28;19943;-72
2022/12/18 00:09:02;;;;;;;;;;;;;;;-11.88;82.00;97475.88;5073739;28;19968;-73
2022/12/18 00:11:29;;;;;;;;;;;;;;;-11.93;82.34;97478.56;5073449;28;19946;-72
2022/12/18 00:13:56;;;;;;;;;;;;;;;-11.97;81.82;97471.94;5073815;28;19973;-72
2022/12/18 00:16:23;;;;;;;;;;;;;;;-11.99;81.96;97476.22;5055624;28;19943;-73
2022/12/18 00:18:50;;;;;;;;;;;;;;;-12.00;81.74;97481.38;5073938;28;19949;-73
2022/12/18 00:21:16;;;;;;;;;;;;;;;-12.02;82.15;97480.59;5073277;28;19946;-73
2022/12/18 00:23:43;;;;;;;;;;;;;;;-12.07;81.21;97489.16;5073297;28;19946;-72
2022/12/18 00:26:28;;;;;;;;;;;;;;;-12.17;82.46;97492.88;5073550;28;19946;-72
2022/12/18 00:28:56;;;;;;;;;;;;;;;-12.41;82.83;97511.38;5074026;28;19952;-73
2022/12/18 00:31:23;;;;;;;;;;;;;;;-12.51;83.35;97510.88;5074255;28;19950;-72
2022/12/18 00:33:49;;;;;;;;;;;;;;;-12.52;84.15;97512.56;5073373;28;19943;-72
2022/12/18 00:36:17;;;;;;;;;;;;;;;-12.57;85.15;97508.53;5073334;28;20457;-72
2022/12/18 00:38:43;;;;;;;;;;;;;;;-12.65;85.52;97513.81;5073493;28;20844;-72
2022/12/18 00:41:10;;;;;;;;;;;;;;;-12.60;85.86;97513.69;5073496;28;19953;-73
2022/12/18 00:43:36;;;;;;;;;;;;;;;-12.55;85.95;97504.25;5073132;28;19952;-72
2022/12/18 00:46:03;;;;;;;;;;;;;;;-12.53;85.65;97500.00;5073352;28;19956;-72
2022/12/18 00:48:29;;;;;;;;;;;;;;;-12.51;84.94;97495.72;5073223;28;19960;-73
2022/12/18 00:50:55;;;;;;;;;;;;;;;-12.48;84.68;97493.06;5073410;28;19951;-72
2022/12/18 00:53:20;;;;;;;;;;;;;;;-12.45;84.82;97500.53;5073138;28;19974;-72
2022/12/18 00:55:46;;;;;;;;;;;;;;;-12.42;84.37;97497.94;5055275;28;20515;-74
2022/12/18 00:58:14;;;;;;;;;;;;;;;-12.38;84.17;97504.53;5072773;28;20011;-72
2022/12/18 01:00:40;;;;;;;;;;;;;;;-12.35;84.16;97496.84;5073511;28;19947;-72
2022/12/18 01:03:05;;;;;;;;;;;;;;;-12.34;83.70;97498.50;5055256;28;19952;-72
2022/12/18 01:05:32;;;;;;;;;;;;;;;-12.32;83.55;97499.28;5073100;28;19984;-73
2022/12/18 01:07:58;;;;;;;;;;;;;;;-12.31;82.87;97500.09;5072998;28;19950;-72
2022/12/18 01:10:24;;;;;;;;;;;;;;;-12.30;83.52;97497.53;5072881;28;19948;-73
2022/12/18 01:12:50;;;;;;;;;;;;;;;-12.28;82.92;97484.84;5073266;28;19945;-72
2022/12/18 01:15:17;;;;;;;;;;;;;;;-12.27;82.97;97492.34;5072885;28;19952;-72
2022/12/18 01:17:43;;;;;;;;;;;;;;;-12.24;83.32;97498.19;5073628;28;19955;-72
2022/12/18 01:20:09;;;;;;;;;;;;;;;-12.23;82.99;97499.84;5072864;28;20046;-72
2022/12/18 01:22:35;;;;;;;;;;;;;;;-12.23;83.99;97494.78;5073240;28;19956;-72
2022/12/18 01:25:02;;;;;;;;;;;;;;;-12.23;84.20;97507.44;5076138;28;19951;-72
2022/12/18 01:27:28;;;;;;;;;;;;;;;-12.22;84.13;97511.59;5076626;28;20319;-72
2022/12/18 01:29:53;;;;;;;;;;;;;;;-12.24;84.66;97513.34;5076163;28;19953;-72
2022/12/18 01:32:20;;;;;;;;;;;;;;;-12.24;85.13;97515.88;5076538;28;20038;-72
2022/12/18 01:34:45;;;;;;;;;;;;;;;-12.27;85.63;97516.81;5076555;28;20302;-72
2022/12/18 01:37:11;;;;;;;;;;;;;;;-12.35;86.21;97524.63;5076118;28;20043;-72
2022/12/18 01:39:37;;;;;;;;;;;;;;;-12.35;86.54;97519.59;5076308;28;19963;-72
2022/12/18 01:42:08;;;;;;;;;;;;;;;-12.38;86.42;97529.00;5076447;28;19948;-72
2022/12/18 01:44:54;;;;;;;;;;;;;;;-12.41;86.78;97531.59;5076512;28;19948;-72
2022/12/18 01:47:26;;;;;;;;;;;;;;;-12.35;86.93;97533.94;5066189;28;19948;-72
2022/12/18 01:49:52;;;;;;;;;;;;;;;-12.29;86.90;97528.69;5076553;28;19955;-72
2022/12/18 01:52:19;;;;;;;;;;;;;;;-12.25;87.53;97522.66;5076154;28;19965;-72
2022/12/18 01:54:46;;;;;;;;;;;;;;;-12.17;87.11;97519.88;5076378;28;20005;-72
2022/12/18 01:57:12;;;;;;;;;;;;;;;-12.12;87.83;97520.53;5057591;28;19952;-72
2022/12/18 01:59:39;;;;;;;;;;;;;;;-12.17;88.04;97530.00;5075959;28;19947;-72
2022/12/18 02:02:06;;;;;;;;;;;;;;;-12.20;88.76;97523.31;5058053;28;19942;-72
2022/12/18 02:04:31;;;;;;;;;;;;;;;-12.24;88.63;97519.22;5058122;28;20424;-73
2022/12/18 02:07:09;;;;;;;;;;;;;;;-12.27;88.71;97519.34;5076363;28;19956;-72
2022/12/18 02:09:40;;;;;;;;;;;;;;;-12.23;89.03;97520.06;5076060;28;19956;-72
2022/12/18 02:12:12;;;;;;;;;;;;;;;-12.22;89.41;97522.53;5064471;28;19948;-73
2022/12/18 02:14:43;;;;;;;;;;;;;;;-12.17;89.28;97528.28;5075818;28;20424;-72
2022/12/18 02:17:16;;;;;;;;;;;;;;;-12.11;89.04;97533.13;5075857;28;19958;-73
2022/12/18 02:20:00;;;;;;;;;;;;;;;-12.04;88.72;97523.63;5075751;28;20299;-72
2022/12/18 02:22:29;;;;;;;;;;;;;;;-11.93;89.16;97520.72;5075817;28;19943;-73
2022/12/18 02:24:55;;;;;;;;;;;;;;;-11.83;89.25;97519.50;5074878;28;19942;-72
2022/12/18 02:27:21;;;;;;;;;;;;;;;-11.74;88.72;97524.22;5075548;28;19937;-72
2022/12/18 02:29:50;;;;;;;;;;;;;;;-11.66;88.42;97518.91;5075473;28;19944;-72
2022/12/18 02:32:20;;;;;;;;;;;;;;;-11.58;88.40;97522.00;5075575;28;20415;-72
2022/12/18 02:34:47;;;;;;;;;;;;;;;-11.53;87.87;97532.78;5075505;28;19941;-72
2022/12/18 02:37:15;;;;;;;;;;;;;;;-11.47;88.16;97524.13;5075110;28;19977;-72
2022/12/18 02:39:43;;;;;;;;;;;;;;;-11.43;87.90;97528.22;5075335;28;19943;-72
2022/12/18 02:42:10;;;;;;;;;;;;;;;-11.38;87.98;97531.41;5075134;28;19951;-73
2022/12/18 02:44:46;;;;;;;;;;;;;;;-11.32;87.92;97533.69;5075281;28;19971;-72
2022/12/18 02:47:14;;;;;;;;;;;;;;;-11.30;87.81;97531.13;5075406;28;19949;-73
2022/12/18 02:49:43;;;;;;;;;;;;;;;-11.26;87.80;97533.47;5065246;28;19960;-72
2022/12/18 02:52:44;;;;;;;;;;;;;;;-11.25;88.16;97527.56;5074320;28;19945;-72
2022/12/18 02:55:12;;;;;;;;;;;;;;;-11.21;88.20;97528.28;4993497;28;19947;-72
2022/12/18 02:57:57;;;;;;;;;;;;;;;-11.19;88.37;97528.19;5059903;28;20407;-72
2022/12/18 03:00:28;;;;;;;;;;;;;;;-11.23;88.36;97528.31;5075221;28;20323;-73
2022/12/18 03:02:59;;;;;;;;;;;;;;;-11.20;88.52;97529.09;5075055;28;20301;-74
2022/12/18 03:05:30;;;;;;;;;;;;;;;-11.17;88.93;97531.50;5074986;28;20320;-73
2022/12/18 03:07:55;;;;;;;;;;;;;;;-11.17;89.22;97534.88;5075216;28;19947;-73
2022/12/18 03:10:25;;;;;;;;;;;;;;;-11.14;88.77;97536.47;5074089;28;19944;-73
2022/12/18 03:13:10;;;;;;;;;;;;;;;-11.13;89.33;97543.16;5074768;28;19947;-72
2022/12/18 03:15:39;;;;;;;;;;;;;;;-11.14;89.41;97542.34;5074514;28;19955;-72
2022/12/18 03:18:08;;;;;;;;;;;;;;;-11.11;89.66;97544.75;5075071;28;19960;-72
2022/12/18 03:20:35;;;;;;;;;;;;;;;-11.10;90.09;97546.41;5074509;28;19951;-73
2022/12/18 03:23:09;;;;;;;;;;;;;;;-11.06;90.08;97542.06;5061464;28;20431;-73
2022/12/18 03:25:37;;;;;;;;;;;;;;;-11.06;90.39;97545.41;5074710;28;19948;-73
2022/12/18 03:28:05;;;;;;;;;;;;;;;-11.02;90.75;97541.06;5063159;28;20418;-72
2022/12/18 03:30:32;;;;;;;;;;;;;;;-11.00;91.20;97539.31;5074266;28;19938;-72
2022/12/18 03:33:04;;;;;;;;;;;;;;;-10.95;91.76;97541.66;5074346;28;19946;-72
2022/12/18 03:35:33;;;;;;;;;;;;;;;-10.89;91.68;97542.25;5074371;28;19955;-72
2022/12/18 03:37:59;;;;;;;;;;;;;;;-10.84;91.95;97540.34;5074259;28;19975;-73
2022/12/18 03:40:45;;;;;;;;;;;;;;;-10.80;91.70;97535.19;5074027;28;20380;-73
2022/12/18 03:43:18;;;;;;;;;;;;;;;-10.73;92.52;97534.06;5060252;28;19962;-73
2022/12/18 03:45:51;;;;;;;;;;;;;;;-10.68;92.73;97537.25;5073559;28;19948;-73
2022/12/18 03:48:31;;;;;;;;;;;;;;;-10.65;92.79;97537.13;5073489;28;19951;-73
2022/12/18 03:51:00;;;;;;;;;;;;;;;-10.59;93.16;97536.06;5074075;28;20288;-73
2022/12/18 03:53:26;;;;;;;;;;;;;;;-10.54;93.43;97534.16;5073849;28;19943;-73
2022/12/18 03:55:52;;;;;;;;;;;;;;;-10.51;93.73;97524.72;5073845;28;19948;-73
2022/12/18 03:58:21;;;;;;;;;;;;;;;-10.47;93.89;97517.84;5073738;28;19963;-72
2022/12/18 04:00:47;;;;;;;;;;;;;;;-10.42;93.53;97529.41;5073883;28;19943;-72
2022/12/18 04:03:13;;;;;;;;;;;;;;;-10.37;93.83;97526.72;5073808;28;20366;-72
2022/12/18 04:05:42;;;;;;;;;;;;;;;-10.35;94.30;97532.56;5073476;28;19943;-72
2022/12/18 04:08:07;;;;;;;;;;;;;;;-10.35;94.45;97526.63;5074380;28;19941;-72
2022/12/18 04:10:36;;;;;;;;;;;;;;;-10.33;94.20;97533.31;5073811;28;19952;-73
2022/12/18 04:13:02;;;;;;;;;;;;;;;-10.35;94.67;97521.56;5073685;28;19959;-72
2022/12/18 04:15:28;;;;;;;;;;;;;;;-10.34;95.02;97521.50;5073778;28;19954;-72
2022/12/18 04:17:54;;;;;;;;;;;;;;;-10.36;94.77;97530.88;5073529;28;20385;-73
2022/12/18 04:20:20;;;;;;;;;;;;;;;-10.33;94.63;97537.53;5073100;28;20001;-72
2022/12/18 04:22:46;;;;;;;;;;;;;;;-10.31;94.59;97520.56;5073498;28;20053;-72
2022/12/18 04:25:12;;;;;;;;;;;;;;;-10.29;95.02;97528.94;5073458;28;19952;-73
2022/12/18 04:27:37;;;;;;;;;;;;;;;-10.24;94.86;97539.69;5073883;28;20290;-72
2022/12/18 04:30:04;;;;;;;;;;;;;;;-10.19;95.18;97542.03;5073666;28;19977;-73
2022/12/18 04:32:30;;;;;;;;;;;;;;;-10.15;95.48;97530.88;5073526;28;19954;-73
2022/12/18 04:34:56;;;;;;;;;;;;;;;-10.16;95.70;97525.00;5073688;28;20312;-73
2022/12/18 04:37:22;;;;;;;;;;;;;;;-10.12;95.67;97523.13;5073287;28;19972;-72
2022/12/18 04:39:48;;;;;;;;;;;;;;;-10.11;96.20;97520.53;5073269;28;20042;-72
2022/12/18 04:42:13;;;;;;;;;;;;;;;-10.12;96.31;97516.38;5073529;28;20416;-72
2022/12/18 04:44:39;;;;;;;;;;;;;;;-10.09;96.10;97520.47;5073261;28;19953;-73
2022/12/18 04:47:05;;;;;;;;;;;;;;;-10.06;96.57;97516.09;5073476;28;20371;-73
2022/12/18 04:49:31;;;;;;;;;;;;;;;-10.01;96.08;97506.59;5073163;28;19957;-73
2022/12/18 04:51:57;;;;;;;;;;;;;;;-9.93;96.31;97497.81;5073350;28;19964;-72
2022/12/18 04:54:23;;;;;;;;;;;;;;;-9.86;96.30;97501.75;5073444;28;19960;-72
2022/12/18 04:56:49;;;;;;;;;;;;;;;-9.80;96.29;97512.47;5073367;28;20042;-73
2022/12/18 04:59:15;;;;;;;;;;;;;;;-9.74;96.21;97521.53;5076423;28;20003;-72
2022/12/18 05:01:40;;;;;;;;;;;;;;;-9.70;95.12;97528.13;5077059;28;19957;-73
2022/12/18 05:04:06;;;;;;;;;;;;;;;-9.70;93.50;97523.06;5076400;28;19977;-72
2022/12/18 05:06:32;;;;;;;;;;;;;;;-9.73;92.95;97523.19;5059390;28;19996;-73
2022/12/18 05:08:58;;;;;;;;;;;;;;;-9.76;92.54;97523.31;5076931;28;20396;-72
2022/12/18 05:11:24;;;;;;;;;;;;;;;-9.80;92.59;97520.06;5077507;28;19940;-73
2022/12/18 05:13:50;;;;;;;;;;;;;;;-9.82;92.30;97521.84;5077062;28;19951;-73
2022/12/18 05:16:16;;;;;;;;;;;;;;;-9.94;91.90;97521.56;5076793;28;20332;-73
2022/12/18 05:18:42;;;;;;;;;;;;;;;-10.10;92.32;97524.75;5077076;28;19962;-73
2022/12/18 05:21:08;;;;;;;;;;;;;;;-10.19;93.07;97527.63;5076841;28;19947;-73
2022/12/18 05:23:34;;;;;;;;;;;;;;;-10.23;93.31;97511.72;5066384;28;19946;-73
2022/12/18 05:26:01;;;;;;;;;;;;;;;-10.23;92.65;97514.25;5076608;28;19972;-73
2022/12/18 05:28:28;;;;;;;;;;;;;;;-10.28;92.90;97518.69;5076700;28;19946;-73
2022/12/18 05:30:55;;;;;;;;;;;;;;;-10.32;92.97;97524.00;5076502;28;19948;-73
2022/12/18 05:33:22;;;;;;;;;;;;;;;-10.31;93.24;97531.53;5058917;28;20074;-74
2022/12/18 05:35:52;;;;;;;;;;;;;;;-10.25;93.41;97535.50;5076189;28;19983;-73
2022/12/18 05:38:18;;;;;;;;;;;;;;;-10.21;93.06;97525.16;5076718;28;19963;-74
2022/12/18 05:40:44;;;;;;;;;;;;;;;-10.21;92.95;97524.34;5076725;28;19955;-72
2022/12/18 05:43:10;;;;;;;;;;;;;;;-10.28;93.21;97521.22;5058588;28;19958;-72
2022/12/18 05:45:37;;;;;;;;;;;;;;;-10.30;93.67;97517.16;5076510;28;19959;-73
2022/12/18 05:48:03;;;;;;;;;;;;;;;-10.29;93.95;97519.59;5076476;28;20387;-72
2022/12/18 05:50:29;;;;;;;;;;;;;;;-10.27;94.04;97519.50;5076754;28;20344;-72
2022/12/18 05:52:55;;;;;;;;;;;;;;;-10.25;94.07;97512.66;5076114;28;19950;-72
2022/12/18 05:55:21;;;;;;;;;;;;;;;-10.22;94.84;97515.91;5076482;28;19969;-72
2022/12/18 05:57:47;;;;;;;;;;;;;;;-10.17;95.26;97513.19;5076170;28;20363;-73
2022/12/18 06:00:13;;;;;;;;;;;;;;;-10.10;95.45;97519.66;5075952;28;19949;-73
2022/12/18 06:02:39;;;;;;;;;;;;;;;-10.04;95.66;97518.56;5076175;28;19943;-72
2022/12/18 06:05:05;;;;;;;;;;;;;;;-10.02;95.24;97520.16;5058328;28;20323;-72
2022/12/18 06:07:31;;;;;;;;;;;;;;;-9.95;94.60;97518.19;5076211;28;20033;-73
2022/12/18 06:09:57;;;;;;;;;;;;;;;-9.93;94.42;97518.97;5075848;28;19979;-72
2022/12/18 06:12:22;;;;;;;;;;;;;;;-9.90;93.81;97526.44;5076054;28;19955;-72
2022/12/18 06:14:48;;;;;;;;;;;;;;;-9.89;93.67;97543.31;5075805;28;20396;-72
2022/12/18 06:17:14;;;;;;;;;;;;;;;-9.87;93.22;97544.09;5075914;28;20313;-72
2022/12/18 06:19:40;;;;;;;;;;;;;;;-9.91;92.95;97549.31;5075788;28;19959;-72
2022/12/18 06:22:06;;;;;;;;;;;;;;;-10.06;92.08;97551.59;5076149;28;19959;-72
2022/12/18 06:24:32;;;;;;;;;;;;;;;-10.26;91.59;97552.44;5075738;28;19997;-72
2022/12/18 06:26:58;;;;;;;;;;;;;;;-10.47;91.88;97558.41;5075720;28;19950;-72
2022/12/18 06:29:24;;;;;;;;;;;;;;;-10.59;92.46;97564.75;5075527;28;20364;-72
2022/12/18 06:31:50;;;;;;;;;;;;;;;-10.58;93.47;97560.50;5075587;28;19954;-72
2022/12/18 06:34:16;;;;;;;;;;;;;;;-10.56;93.34;97563.81;5075440;28;19952;-73
2022/12/18 06:36:42;;;;;;;;;;;;;;;-10.52;92.85;97572.94;5075696;28;19977;-73
2022/12/18 06:39:08;;;;;;;;;;;;;;;-10.46;92.70;97571.00;5075636;28;20020;-72
2022/12/18 06:41:34;;;;;;;;;;;;;;;-10.43;92.28;97568.34;5075418;28;20410;-72
2022/12/18 06:43:59;;;;;;;;;;;;;;;-10.47;91.36;97571.06;5075190;28;20044;-72
2022/12/18 06:46:25;;;;;;;;;;;;;;;-10.54;90.84;97570.50;5075439;28;20002;-73
2022/12/18 06:48:51;;;;;;;;;;;;;;;-10.60;91.78;97570.72;5075500;28;19953;-72
2022/12/18 06:51:18;;;;;;;;;;;;;;;-10.60;91.73;97574.94;5075191;28;20409;-71
2022/12/18 06:53:44;;;;;;;;;;;;;;;-10.66;91.75;97581.91;5075096;28;19954;-72
2022/12/18 06:56:10;;;;;;;;;;;;;;;-10.69;92.14;97583.72;5075156;28;20385;-72
2022/12/18 06:58:36;;;;;;;;;;;;;;;-10.74;92.17;97588.97;5074756;28;20062;-72
2022/12/18 07:01:03;;;;;;;;;;;;;;;-10.70;91.97;97590.53;5075027;28;19953;-72
2022/12/18 07:03:29;;;;;;;;;;;;;;;-10.64;91.62;97592.81;5075005;28;19965;-72
2022/12/18 07:05:55;;;;;;;;;;;;;;;-10.58;91.42;97594.31;5074982;28;20407;-72
2022/12/18 07:08:21;;;;;;;;;;;;;;;-10.56;91.08;97600.16;5074991;28;20036;-72
2022/12/18 07:10:48;;;;;;;;;;;;;;;-10.53;90.97;97609.34;5074662;28;19956;-74
2022/12/18 07:13:15;;;;;;;;;;;;;;;-10.51;90.83;97598.25;5074766;28;19962;-72
2022/12/18 07:15:41;;;;;;;;;;;;;;;-10.50;90.52;97607.53;5074774;28;19957;-72
2022/12/18 07:18:07;;;;;;;;;;;;;;;-10.55;90.79;97603.50;5075095;28;19964;-72
2022/12/18 07:20:32;;;;;;;;;;;;;;;-10.58;90.74;97601.06;5073742;28;19986;-72
2022/12/18 07:22:58;;;;;;;;;;;;;;;-10.70;90.53;97602.38;5074640;28;19950;-72
2022/12/18 07:25:24;;;;;;;;;;;;;;;-10.90;90.78;97603.09;5074589;28;19997;-72
2022/12/18 07:27:50;;;;;;;;;;;;;;;-10.93;91.50;97611.66;5074311;28;19971;-72
2022/12/18 07:30:16;;;;;;;;;;;;;;;-10.93;91.40;97606.59;5056588;28;19957;-72
2022/12/18 07:32:42;;;;;;;;;;;;;;;-10.87;91.67;97611.44;5074354;28;19989;-72
2022/12/18 07:35:07;;;;;;;;;;;;;;;-10.80;91.61;97601.88;5074513;28;19956;-72
2022/12/18 07:37:33;;;;;;;;;;;;;;;-10.72;91.32;97604.16;5056061;28;19969;-72
2022/12/18 07:39:59;;;;;;;;;;;;;;;-10.64;90.66;97597.91;5074265;28;20431;-73
2022/12/18 07:42:31;;;;;;;;;;;;;;;-10.57;90.44;97595.13;5074335;28;19946;-72
2022/12/18 07:44:58;;;;;;;;;;;;;;;-10.56;89.59;97595.06;5074685;28;19954;-72
2022/12/18 07:47:24;;;;;;;;;;;;;;;-10.60;89.49;97602.84;5074022;28;19954;-72
2022/12/18 07:49:50;;;;;;;;;;;;;;;-10.61;89.55;97602.00;5073585;28;19951;-72
2022/12/18 07:52:15;;;;;;;;;;;;;;;-10.57;89.08;97608.63;5074206;28;19950;-73
2022/12/18 07:54:42;;;;;;;;;;;;;;;-10.65;88.05;97603.00;5073862;28;19995;-72
2022/12/18 07:57:08;;;;;;;;;;;;;;;-10.74;88.78;97614.31;5073881;28;20052;-72
2022/12/18 07:59:34;;;;;;;;;;;;;;;-10.75;89.15;97614.38;5073950;28;19964;-72
2022/12/18 08:02:00;;;;;;;;;;;;;;;-10.71;88.86;97616.72;5073884;28;19955;-72
2022/12/18 08:04:26;;;;;;;;;;;;;;;-10.73;88.24;97617.69;5073891;28;19957;-72
2022/12/18 08:06:52;;;;;;;;;;;;;;;-10.82;88.35;97618.84;5074011;28;19954;-72
2022/12/18 08:09:18;;;;;;;;;;;;;;;-10.82;88.70;97614.59;5073640;28;19961;-72
2022/12/18 08:11:44;;;;;;;;;;;;;;;-10.80;88.18;97618.81;5074218;28;20378;-72
2022/12/18 08:14:10;;;;;;;;;;;;;;;-10.77;88.96;97617.00;5073526;28;19945;-72
2022/12/18 08:16:36;;;;;;;;;;;;;;;-10.62;88.50;97610.50;5073793;28;19994;-72
2022/12/18 08:19:02;;;;;;;;;;;;;;;-10.45;88.03;97612.41;5073541;28;19989;-72
2022/12/18 08:21:29;;;;;;;;;;;;;;;-10.27;87.83;97609.09;5073643;28;19953;-72
2022/12/18 08:23:56;;;;;;;;;;;;;;;-10.07;87.92;97613.41;5073454;28;20254;-72
2022/12/18 08:26:24;;;;;;;;;;;;;;;-9.86;87.71;97614.25;5073816;28;19953;-72
2022/12/18 08:28:50;;;;;;;;;;;;;;;-9.66;86.94;97615.97;5073487;28;19944;-72
2022/12/18 08:31:16;;;;;;;;;;;;;;;-9.55;86.60;97607.06;5073469;28;19951;-72
2022/12/18 08:33:42;;;;;;;;;;;;;;;-9.55;86.55;97594.34;5072946;28;19949;-72
2022/12/18 08:36:09;;;;;;;;;;;;;;;-9.55;86.42;97607.91;5072752;28;19969;-72
2022/12/18 08:38:35;;;;;;;;;;;;;;;-9.61;83.96;97591.19;5055452;28;19976;-73
2022/12/18 08:41:02;;;;;;;;;;;;;;;-9.80;84.26;97595.41;5073220;28;19943;-72
2022/12/18 08:46:15;;;;;;;;;;;;;;;-9.84;84.34;97596.41;5073352;28;19939;-72
2022/12/18 08:48:41;;;;;;;;;;;;;;;-9.85;84.47;97594.75;5073555;28;19947;-72
2022/12/18 08:51:09;;;;;;;;;;;;;;;-9.89;83.86;97575.47;5055253;28;19954;-72
2022/12/18 08:53:35;;;;;;;;;;;;;;;-9.93;84.82;97586.63;5074001;28;19944;-72
2022/12/18 08:56:02;;;;;;;;;;;;;;;-9.75;84.87;97592.66;5073291;28;19955;-72
2022/12/18 08:58:27;;;;;;;;;;;;;;;-9.62;84.47;97584.47;5073585;28;19962;-72
2022/12/18 09:00:53;;;;;;;;;;;;;;;-9.38;85.10;97581.78;5073265;28;19953;-72
2022/12/18 09:03:22;;;;;;;;;;;;;;;-9.08;84.61;97578.78;5073321;28;19944;-72
2022/12/18 09:05:48;;;;;;;;;;;;;;;-8.81;84.25;97581.81;5055178;28;19971;-72
2022/12/18 09:08:14;;;;;;;;;;;;;;;-8.60;84.49;97574.91;5073050;28;19963;-72
2022/12/18 09:10:43;;;;;;;;;;;;;;;-8.44;83.88;97569.91;5073630;28;20039;-71
2022/12/18 09:13:10;;;;;;;;;;;;;;;-8.29;83.10;97559.00;5055079;28;20320;-71
2022/12/18 09:15:49;;;;;;;;;;;;;;;-8.12;82.81;97555.63;5072988;28;19950;-73
2022/12/18 09:18:16;;;;;;;;;;;;;;;-7.92;82.56;97559.75;5064262;28;19945;-71
2022/12/18 09:20:42;;;;;;;;;;;;;;;-7.72;82.76;97557.94;5073101;28;19954;-71
2022/12/18 09:23:09;;;;;;;;;;;;;;;-7.55;82.86;97558.72;5073006;28;19950;-71
2022/12/18 09:25:35;;;;;;;;;;;;;;;-7.31;83.06;97562.66;5073133;28;19943;-73
2022/12/18 09:28:06;;;;;;;;;;;;;;;-7.10;82.76;97561.53;5073022;28;19944;-73
2022/12/18 09:30:33;;;;;;;;;;;;;;;-6.97;81.37;97544.69;5073034;28;19952;-73
2022/12/18 09:33:00;;;;;;;;;;;;;;;-6.88;80.80;97542.56;5073012;28;19952;-73
2022/12/18 09:35:27;;;;;;;;;;;;;;;-6.79;80.11;97542.03;5072659;28;19962;-71
2022/12/18 09:37:53;;;;;;;;;;;;;;;-6.78;79.92;97534.31;5073016;28;19957;-75
2022/12/18 09:40:20;;;;;;;;;;;;;;;-6.80;79.94;97530.22;5072282;28;19971;-72
2022/12/18 09:42:51;;;;;;;;;;;;;;;-6.72;80.77;97542.53;5072653;28;19945;-73
2022/12/18 09:45:17;;;;;;;;;;;;;;;-6.58;81.51;97551.06;5075850;28;19950;-73
2022/12/18 09:47:45;;;;;;;;;;;;;;;-6.45;82.70;97563.16;5076308;28;19946;-73
2022/12/18 09:50:23;;;;;;;;;;;;;;;-6.26;82.93;97553.56;5076701;28;20296;-73
2022/12/18 09:52:53;;;;;;;;;;;;;;;-6.17;80.82;97527.53;5076808;28;20318;-73
2022/12/18 09:55:30;;;;;;;;;;;;;;;-6.03;81.34;97538.69;5076200;28;20459;-73
2022/12/18 09:58:06;;;;;;;;;;;;;;;-5.91;82.18;97543.88;5076070;28;19951;-73
2022/12/18 10:00:32;;;;;;;;;;;;;;;-5.71;82.45;97550.41;5076225;28;20441;-73
2022/12/18 10:03:16;;;;;;;;;;;;;;;-5.57;79.84;97533.44;5076050;28;20005;-73
2022/12/18 10:05:42;;;;;;;;;;;;;;;-5.44;81.29;97548.88;5076274;28;19947;-73
2022/12/18 10:08:08;;;;;;;;;;;;;;;-5.33;80.68;97538.84;5075794;28;19954;-73
2022/12/18 10:10:47;;;;;;;;;;;;;;;-5.31;79.30;97529.34;5075800;28;19959;-73
2022/12/18 10:13:19;;;;;;;;;;;;;;;-5.35;80.16;97546.59;5076256;28;19938;-73
2022/12/18 10:15:58;;;;;;;;;;;;;;;-5.44;79.96;97538.66;5075878;28;19942;-72
2022/12/18 10:18:36;;;;;;;;;;;;;;;-5.37;81.37;97545.88;5075708;28;19961;-73
2022/12/18 10:21:16;;;;;;;;;;;;;;;-5.21;81.83;97550.06;5076024;28;19950;-73
2022/12/18 10:23:42;;;;;;;;;;;;;;;-4.98;82.53;97554.59;5075347;28;20406;-73
2022/12/18 10:26:09;;;;;;;;;;;;;;;-4.78;82.13;97555.13;5075670;28;19946;-74
2022/12/18 10:28:36;;;;;;;;;;;;;;;-4.61;82.10;97554.06;5075856;28;19938;-72
2022/12/18 10:31:04;;;;;;;;;;;;;;;-4.51;81.61;97537.22;5075308;28;19956;-73
2022/12/18 10:33:31;;;;;;;;;;;;;;;-4.42;79.71;97521.28;5075408;28;19946;-73
2022/12/18 10:35:58;;;;;;;;;;;;;;;-4.43;81.50;97531.59;5075190;28;19977;-73
2022/12/18 10:38:23;;;;;;;;;;;;;;;-4.42;80.67;97526.38;5075477;28;20020;-73
2022/12/18 10:41:03;;;;;;;;;;;;;;;-4.39;80.61;97530.50;5075227;28;20398;-73
2022/12/18 10:43:29;;;;;;;;;;;;;;;-4.39;80.19;97528.78;5075149;28;19953;-73
2022/12/18 10:46:07;;;;;;;;;;;;;;;-4.37;80.64;97528.66;5074864;28;19943;-73
2022/12/18 10:48:52;;;;;;;;;;;;;;;-4.39;81.40;97536.47;5075281;28;20415;-73
2022/12/18 10:51:26;;;;;;;;;;;;;;;-4.36;80.81;97538.00;5075127;28;19953;-73
2022/12/18 10:53:56;;;;;;;;;;;;;;;-4.44;79.84;97509.50;5074935;28;19946;-72
2022/12/18 10:56:24;;;;;;;;;;;;;;;-4.43;81.60;97521.34;5075236;28;20328;-74
2022/12/18 10:58:58;;;;;;;;;;;;;;;-4.47;81.64;97513.06;5074934;28;20331;-76
2022/12/18 11:01:24;;;;;;;;;;;;;;;-4.49;82.18;97525.16;5074871;28;19952;-72
2022/12/18 11:03:49;;;;;;;;;;;;;;;-4.57;81.40;97519.69;5075012;28;20353;-72
2022/12/18 11:06:17;;;;;;;;;;;;;;;-4.46;82.86;97526.69;5074655;28;19950;-72
2022/12/18 11:08:44;;;;;;;;;;;;;;;-4.37;82.41;97514.09;5074745;28;19954;-73
2022/12/18 11:11:20;;;;;;;;;;;;;;;-4.26;81.77;97512.59;5074724;28;19991;-72
2022/12/18 11:13:52;;;;;;;;;;;;;;;-4.19;82.32;97517.22;5074739;28;19944;-72
2022/12/18 11:16:19;;;;;;;;;;;;;;;-4.14;82.46;97509.25;5074566;28;20385;-72
2022/12/18 11:18:45;;;;;;;;;;;;;;;-4.03;82.61;97511.94;5074587;28;19966;-73
2022/12/18 11:21:11;;;;;;;;;;;;;;;-3.88;82.16;97512.69;5074849;28;20052;-72
2022/12/18 11:23:45;;;;;;;;;;;;;;;-3.73;82.96;97513.41;5074485;28;20307;-73
2022/12/18 11:26:11;;;;;;;;;;;;;;;-3.67;82.75;97511.25;5074416;28;19950;-73
2022/12/18 11:28:46;;;;;;;;;;;;;;;-3.59;82.89;97507.34;5074302;28;19997;-73
2022/12/18 11:31:21;;;;;;;;;;;;;;;-3.53;82.89;97510.34;5074376;28;20334;-74
2022/12/18 11:33:54;;;;;;;;;;;;;;;-3.51;82.25;97508.50;5074616;28;20404;-72
2022/12/18 11:36:21;;;;;;;;;;;;;;;-3.50;82.10;97501.59;5074130;28;19975;-73
2022/12/18 11:38:48;;;;;;;;;;;;;;;-3.51;82.03;97497.38;5074180;28;19948;-73
2022/12/18 11:41:20;;;;;;;;;;;;;;;-3.52;82.75;97498.31;5062849;28;19948;-73
2022/12/18 11:43:50;;;;;;;;;;;;;;;-3.55;81.66;97483.13;5074016;28;19949;-73
2022/12/18 11:46:22;;;;;;;;;;;;;;;-3.65;82.60;97490.66;5074179;28;19939;-72
2022/12/18 11:49:10;;;;;;;;;;;;;;;-3.74;83.07;97494.66;5074230;28;19951;-73
2022/12/18 11:52:03;;;;;;;;;;;;;;;-3.83;83.44;97497.81;5073909;28;19943;-73
2022/12/18 11:54:28;;;;;;;;;;;;;;;-4.05;83.51;97489.88;5070886;28;19942;-73
2022/12/18 11:57:18;;;;;;;;;;;;;;;-4.08;84.88;97498.59;5056120;28;20059;-73
2022/12/18 11:59:55;;;;;;;;;;;;;;;-4.00;85.94;97509.16;5063023;28;19966;-73
2022/12/18 12:02:21;;;;;;;;;;;;;;;-3.94;86.23;97516.47;5074119;28;19949;-73
2022/12/18 12:05:17;;;;;;;;;;;;;;;-3.91;84.89;97506.00;5073720;28;19947;-72
2022/12/18 12:07:52;;;;;;;;;;;;;;;-3.86;86.21;97505.72;5049528;28;19957;-72
2022/12/18 12:10:26;;;;;;;;;;;;;;;-3.85;85.07;97484.28;5073754;28;20514;-72
2022/12/18 12:12:53;;;;;;;;;;;;;;;-3.89;87.10;97496.47;5073655;28;19945;-72
2022/12/18 12:15:31;;;;;;;;;;;;;;;-3.85;86.27;97486.03;5073980;28;19943;-72
2022/12/18 12:17:57;;;;;;;;;;;;;;;-3.85;85.89;97486.03;5073520;28;19953;-72
2022/12/18 12:20:28;;;;;;;;;;;;;;;-3.83;86.19;97485.00;5073429;28;20019;-72
2022/12/18 12:23:02;;;;;;;;;;;;;;;-3.83;84.79;97484.19;5073653;28;19949;-72
2022/12/18 12:25:28;;;;;;;;;;;;;;;-3.87;84.76;97478.44;5073180;28;19943;-72
2022/12/18 12:28:12;;;;;;;;;;;;;;;-3.83;86.09;97472.19;5072887;28;19960;-74
2022/12/18 12:30:44;;;;;;;;;;;;;;;-3.84;84.95;97470.56;5055749;28;19956;-73
2022/12/18 12:33:10;;;;;;;;;;;;;;;-3.89;85.83;97475.97;5058666;28;19950;-72
2022/12/18 12:35:44;;;;;;;;;;;;;;;-3.79;87.01;97490.75;5073163;28;19962;-72
2022/12/18 12:38:13;;;;;;;;;;;;;;;-3.70;86.89;97488.38;5073456;28;20430;-72
2022/12/18 12:40:43;;;;;;;;;;;;;;;-3.58;86.62;97494.41;5073066;28;19981;-72
2022/12/18 12:43:20;;;;;;;;;;;;;;;-3.51;85.83;97487.13;5073463;28;19948;-73
2022/12/18 12:45:52;;;;;;;;;;;;;;;-3.42;86.81;97496.78;5055771;28;19949;-72
2022/12/18 12:48:33;;;;;;;;;;;;;;;-3.34;86.71;97504.78;5073249;28;19942;-73
2022/12/18 12:51:01;;;;;;;;;;;;;;;-3.32;85.46;97494.38;5072835;28;20014;-72